Bad Aussee, Austria

8:14 PM CEST on July 02, 2015 (GMT +0200)
Salzburg Flughafen | | Change Station
CLOSE
Current Station
Airport
Location: Salzburg Flughafen,
Elevation: 1411 ft
Nearby Weather Stations
Active Advisory: Thunderstorms deutsch:

Elev 1411 ft 47.79 °N, 13.01 °E | Updated 24 minutes ago

Partly Cloudy
Partly Cloudy
82 °F
Feels Like 82 °F
N
8
Wind Variable Wind from NNE

Today
High -- | Low -- °F
--% Chance of Precip.
Yesterday
High -- | Low -- °F
Precip. -- in
5:11 AM 9:06 PM
Waxing Gibbous, 99% visible
Pressure 30.18 in
Visibility 6.2 miles
Clouds Few 7000 ft
Heat Index 82 °F
Dew Point 59 °F
Humidity 45%
Rainfall 0.00 in
Snow Depth Not available.
UV 1 out of 12
Pollen Not available.
Air Quality Not available.
Flu Activity Not available.
METAR LOWS 021750Z 02007KT 9999 FEW070 28/15 Q1022 NOSIG

More Conditions Fewer Conditions

Pressure 30.18 in
Visibility 6.2 miles
Clouds Few 7000 ft
Heat Index 82 °F
Dew Point 59 °F
Humidity 45%
Rainfall 0.00 in
Snow Depth Not available.
UV 1 out of 12
Pollen Not available.
Air Quality Not available.
Flu Activity Not available.
METAR LOWS 021750Z 02007KT 9999 FEW070 28/15 Q1022 NOSIG

More Conditions Fewer Conditions

10-Day Weather Forecast

×

Almanac

Astronomy

Jul. 02, 2015 Rise Set
Actual Time
Civil Twilight
Nautical Twilight
Astronomical Twilight
Moon
Length of Visible Light
Length of Day
Tomorrow will be .
, % of the Moon is Illuminated

Today's Extremes

Country Highs Country Lows

Community

WunderPhotos

Upload Photos

1,834,507 photos uploaded!

WunderBlogs® & News

Nearby

Air Quality

  Air Quality AQ Index Pollutant
Not available.

Snow Depth

Station Depth Elevation

Earthquake Activity

City Distance Mag. Time & Date
Minimum magnitude displayed is 2.5.

Coastal Water Temperatures

Place Temperature

Stations

Nearby Weather Stations

Station Location Temp. Windchill Dew Point Humidity Wind Precip. Elev Updated Type